Hauptseite
METAR-TAF:

METAR-TAF

Flughäfen :

Büchel, Deutschland

Fliegerhorst Büchel

Breite: 50-10N, Länge: 007-04E, Höhe: 478 m

Beobachtung

Neuester Wetterbericht von vor 44 Minuten, um 11:20 UTC
Wind 2 kt aus Süd
Temperatur 17°C
Luftfeuchtigkeit 59%
Luftdruck 1024 hPa
Sichtweite 10 km oder mehr
Aufgelockert bewölkt in der Höhe von 3000 ft

METAR: ETSB 211120Z 19002KT 9999 SCT030 17/09 Q1024 BLU+BLU+

Zeit: 14:04 (12:04 UTC)

Prognose

Neuester Wetterbericht von vor 1 Stunde und 48 Minuten, um 10:16 UTC
Gültige Prognose vom 21 um 11 UTC bis 21 um 20 UTC
Wind 8 kt aus West/Südwest
Sichtweite 10 km oder mehr
Aufgelockert bewölkt in der Höhe von 4000 ft

TAF: ETSB 211016Z 2111/2120 24008KT 9999 NSW SCT040 BY ETGL

Wetterbeobachtungen und Prognosen von mehr als 4000 Flughäfen (METAR und TAF Bericht).

Die verfügbaren Stationen werden durch gelbe und rote Markierungen auf der Karte dargestellt.

Führen Sie die Maus auf sie, um den Namen der Station zu sehen.

Darauf klicken, um die Beobachtung von Wetterbeobachtungen und Prognosen zu sehen.

Um die Karte zu ändern : klicken Sie auf den grünen Tasten mit einem schwarzen Kreuz Zum Vergrößern, auf den grünen Button mit einem Gedankenstrich zu verkleinern, oder auf die grünen Pfeile für benachbarte Karten.


METAR-TAF: